Time;durP1;ratioP1;P1;durP2;ratioP2;P2;SDS_P1;SDS_P2;PMS_P1;PMS_P2;Temp;Humidity;BMP_temperature;BMP_pressure;BME280_temperature;BME280_humidity;BME280_pressure;Samples;Min_cycle;Max_cycle;Signal;HPM_P1;HPM_P2
2023/01/17 00:02:24;;;;;;;5.87;2.03;;;3.20;99.90;;;3.62;100.00;95237.69;5037120;28;20464;-79
2023/01/17 00:10:29;;;;;;;2.27;2.07;;;3.10;99.90;;;3.59;100.00;95243.28;5035971;28;20616;-79
2023/01/17 00:13:01;;;;;;;5.50;2.37;;;3.10;99.90;;;3.56;100.00;95244.50;5036331;28;20497;-79
2023/01/17 00:15:32;;;;;;;2.00;1.60;;;3.10;99.90;;;3.51;100.00;95245.13;5036362;28;21014;-79
2023/01/17 00:18:03;;;;;;;5.17;2.10;;;3.00;99.90;;;3.53;100.00;95253.47;5038573;28;20463;-79
2023/01/17 00:26:25;;;;;;;4.90;2.20;;;3.00;99.90;;;3.43;100.00;95266.09;5035616;28;20477;-78
2023/01/17 01:34:04;;;;;;;3.10;1.97;;;3.00;99.90;;;3.50;100.00;95333.97;5035762;28;20468;-79
2023/01/17 01:36:33;;;;;;;3.73;2.17;;;3.00;99.90;;;3.43;100.00;95330.66;5033839;28;20556;-79
2023/01/17 01:39:05;;;;;;;3.23;1.80;;;2.90;99.90;;;3.48;100.00;95328.22;5035577;28;20539;-79
2023/01/17 01:41:35;;;;;;;3.10;2.03;;;3.00;99.90;;;3.50;100.00;95338.34;5035104;28;20463;-79
2023/01/17 01:44:45;;;;;;;3.63;2.90;;;2.90;99.90;;;3.51;100.00;95332.94;5035719;28;20484;-79
2023/01/17 01:47:23;;;;;;;4.10;1.93;;;3.00;99.90;;;3.50;100.00;95344.31;5034514;28;20493;-79
2023/01/17 01:49:53;;;;;;;5.53;2.20;;;2.90;99.90;;;3.50;100.00;95341.72;5037417;28;20927;-78
2023/01/17 01:52:29;;;;;;;3.33;1.97;;;3.00;99.90;;;3.47;100.00;95344.69;5037717;28;22420;-79
2023/01/17 01:55:04;;;;;;;4.10;2.10;;;2.90;99.90;;;3.48;100.00;95345.50;5034925;28;20542;-79
2023/01/17 01:57:46;;;;;;;4.00;1.97;;;3.00;99.90;;;3.44;100.00;95349.50;5034947;28;20956;-79
2023/01/17 02:00:23;;;;;;;2.93;2.07;;;3.00;99.90;;;3.43;100.00;95350.50;5034771;28;20588;-79
2023/01/17 02:02:59;;;;;;;3.20;2.07;;;3.00;99.90;;;3.41;100.00;95348.13;5036452;28;20517;-79
2023/01/17 02:05:30;;;;;;;4.00;1.93;;;2.90;99.90;;;3.42;100.00;95341.97;5036052;28;20477;-79
2023/01/17 02:08:04;;;;;;;2.87;1.87;;;3.00;99.90;;;3.41;100.00;95344.75;5037177;28;20469;-79
2023/01/17 02:10:38;;;;;;;4.43;2.07;;;3.00;99.90;;;3.37;100.00;95341.78;5036506;28;20507;-79
2023/01/17 02:13:09;;;;;;;2.60;1.70;;;2.90;99.90;;;3.39;100.00;95344.97;5034080;28;20528;-79
2023/01/17 02:15:57;;;;;;;4.20;2.27;;;2.90;99.90;;;3.36;100.00;95345.41;5035579;28;20564;-79
2023/01/17 02:18:45;;;;;;;5.43;2.00;;;3.00;99.90;;;3.34;100.00;95344.78;5037367;28;20496;-78
2023/01/17 02:21:24;;;;;;;2.90;2.43;;;2.90;99.90;;;3.38;100.00;95338.22;5035387;28;20494;-80
2023/01/17 02:25:08;;;;;;;8.83;2.90;;;3.00;99.90;;;3.30;100.00;95341.03;5038625;28;20463;-79
2023/01/17 02:28:04;;;;;;;5.37;1.87;;;2.80;99.90;;;3.33;100.00;95339.84;5022335;28;21067;-79
2023/01/17 02:30:39;;;;;;;3.80;2.20;;;2.90;99.90;;;3.32;100.00;95340.84;5035797;28;20814;-79
2023/01/17 02:33:33;;;;;;;2.13;1.80;;;2.90;99.90;;;3.33;100.00;95345.78;5036206;28;20497;-79
2023/01/17 02:36:14;;;;;;;8.73;2.40;;;2.80;99.90;;;3.36;100.00;95344.59;5035991;28;20991;-79
2023/01/17 02:38:55;;;;;;;4.77;2.00;;;2.80;99.90;;;3.37;100.00;95341.78;5035681;28;21269;-79
2023/01/17 02:41:35;;;;;;;8.47;2.07;;;2.90;99.90;;;3.35;100.00;95343.81;5036325;28;20461;-79
2023/01/17 02:44:07;;;;;;;2.83;2.07;;;2.80;99.90;;;3.36;100.00;95342.81;5034969;28;20991;-78
2023/01/17 02:46:46;;;;;;;4.03;2.20;;;2.90;99.90;;;3.36;100.00;95347.97;5035470;28;20479;-79
2023/01/17 02:49:17;;;;;;;3.43;2.20;;;2.80;99.90;;;3.36;100.00;95337.66;5035836;28;20467;-79
2023/01/17 02:52:09;;;;;;;4.20;2.43;;;2.90;99.90;;;3.38;100.00;95342.59;5036149;28;20512;-79
2023/01/17 02:55:13;;;;;;;3.07;2.00;;;2.90;99.90;;;3.37;100.00;95344.38;5034458;28;20460;-79
2023/01/17 02:58:04;;;;;;;6.43;2.80;;;2.80;99.90;;;3.39;100.00;95339.00;5034934;28;21118;-79
2023/01/17 03:00:50;;;;;;;6.63;2.00;;;2.90;99.90;;;3.36;100.00;95340.22;5034075;28;20876;-79
2023/01/17 03:03:33;;;;;;;2.67;2.30;;;2.90;99.90;;;3.39;100.00;95342.38;5034254;28;20471;-79
2023/01/17 03:06:12;;;;;;;2.43;2.10;;;2.90;99.90;;;3.36;100.00;95347.19;5036268;28;20549;-79
2023/01/17 03:08:46;;;;;;;2.60;1.90;;;2.80;99.90;;;3.39;100.00;95352.72;5036397;28;20463;-79
2023/01/17 03:11:15;;;;;;;2.90;1.90;;;2.90;99.90;;;3.38;100.00;95356.28;5036903;28;20483;-79
2023/01/17 03:13:46;;;;;;;13.20;2.57;;;2.90;99.90;;;3.38;100.00;95352.91;5034227;28;20513;-78
2023/01/17 03:16:21;;;;;;;4.20;2.20;;;2.90;99.90;;;3.39;100.00;95354.50;5036207;28;20450;-78
2023/01/17 03:18:53;;;;;;;4.20;2.50;;;3.00;99.90;;;3.35;100.00;95350.75;5037471;28;20489;-79
2023/01/17 03:21:25;;;;;;;8.93;2.20;;;2.90;99.90;;;3.31;100.00;95360.72;5033285;28;20474;-78
2023/01/17 03:23:55;;;;;;;3.23;2.33;;;2.80;99.90;;;3.35;100.00;95354.13;5035125;28;20475;-78
2023/01/17 03:26:26;;;;;;;4.27;2.60;;;2.90;99.90;;;3.30;100.00;95350.56;5034001;28;20464;-78
2023/01/17 03:28:56;;;;;;;3.13;2.20;;;2.90;99.90;;;3.26;100.00;95350.22;5038250;28;20556;-78
2023/01/17 03:31:25;;;;;;;6.43;2.30;;;2.80;99.90;;;3.24;100.00;95348.84;5035601;28;20466;-78
2023/01/17 03:33:56;;;;;;;2.37;2.10;;;2.80;99.90;;;3.23;100.00;95348.03;5034738;28;20548;-79
2023/01/17 03:36:25;;;;;;;2.37;2.03;;;2.80;99.90;;;3.18;100.00;95347.88;5033521;28;20586;-78
2023/01/17 03:38:55;;;;;;;3.00;1.70;;;2.70;99.90;;;3.19;100.00;95344.31;5035844;28;20468;-78
2023/01/17 03:41:25;;;;;;;2.03;1.57;;;2.60;99.90;;;3.19;100.00;95346.91;5030916;28;20488;-78
2023/01/17 03:43:54;;;;;;;1.90;1.80;;;2.70;99.90;;;3.04;100.00;95346.38;5034211;28;21250;-78
2023/01/17 03:46:27;;;;;;;5.03;1.90;;;2.60;99.90;;;2.87;100.00;95347.84;5034202;28;20984;-79
2023/01/17 03:48:58;;;;;;;4.57;1.80;;;2.40;99.90;;;2.87;100.00;95353.00;5033658;28;20456;-79
2023/01/17 03:51:27;;;;;;;1.67;1.30;;;2.50;99.90;;;2.86;100.00;95354.00;5031018;28;20462;-79
2023/01/17 03:53:57;;;;;;;1.83;1.73;;;2.60;99.90;;;2.87;100.00;95355.59;5033781;28;20506;-78
2023/01/17 03:56:28;;;;;;;1.50;1.40;;;2.50;99.90;;;2.90;100.00;95357.75;5032098;28;20471;-79
2023/01/17 03:58:57;;;;;;;2.27;1.40;;;2.50;99.90;;;2.86;100.00;95361.75;5033310;28;21192;-79
2023/01/17 04:01:26;;;;;;;1.23;1.13;;;2.50;99.90;;;2.80;100.00;95352.25;5038721;28;20520;-79
2023/01/17 04:03:59;;;;;;;2.83;1.40;;;2.40;99.90;;;2.80;100.00;95354.81;5035054;28;20478;-79
2023/01/17 04:06:30;;;;;;;1.70;1.57;;;2.30;99.90;;;2.84;100.00;95348.25;5036224;28;21086;-79
2023/01/17 04:09:00;;;;;;;1.93;1.63;;;2.40;99.90;;;2.85;100.00;95349.81;5039398;28;20498;-76
2023/01/17 04:11:30;;;;;;;1.80;1.57;;;2.50;99.90;;;2.85;100.00;95339.50;5037811;28;20543;-79
2023/01/17 04:14:00;;;;;;;1.60;1.50;;;2.40;99.90;;;2.84;100.00;95333.59;5038110;28;20481;-79
2023/01/17 04:16:33;;;;;;;2.43;1.83;;;2.40;99.90;;;2.85;100.00;95336.94;5038215;28;21109;-79
2023/01/17 04:19:03;;;;;;;3.30;1.70;;;2.40;99.90;;;2.83;100.00;95333.78;5040355;28;20465;-79
2023/01/17 04:21:33;;;;;;;1.50;1.40;;;2.30;99.90;;;2.83;100.00;95329.41;5040916;28;20476;-76
2023/01/17 04:24:03;;;;;;;3.80;2.60;;;2.30;99.90;;;2.84;100.00;95335.38;5035834;28;20469;-79
2023/01/17 04:26:32;;;;;;;1.57;1.47;;;2.30;99.90;;;2.85;100.00;95326.59;5037660;28;20558;-79
2023/01/17 04:29:01;;;;;;;1.30;1.20;;;2.30;99.90;;;2.82;100.00;95338.13;5036675;28;20463;-79
2023/01/17 04:31:31;;;;;;;1.37;1.27;;;2.30;99.90;;;2.81;100.00;95338.38;5039747;28;20466;-79
2023/01/17 04:34:03;;;;;;;1.47;1.10;;;2.20;99.90;;;2.78;100.00;95344.69;5040952;28;20588;-80
2023/01/17 04:36:33;;;;;;;1.20;1.10;;;2.10;99.90;;;2.75;100.00;95350.28;5039646;28;20471;-80
2023/01/17 04:39:04;;;;;;;2.70;1.40;;;2.10;99.90;;;2.76;100.00;95345.91;5040072;28;20552;-80
2023/01/17 04:41:34;;;;;;;1.47;1.37;;;2.10;99.90;;;2.72;100.00;95352.47;5034973;28;20887;-75
2023/01/17 04:44:05;;;;;;;1.50;1.40;;;2.10;99.90;;;2.69;100.00;95358.84;5036835;28;20494;-79
2023/01/17 04:46:35;;;;;;;1.40;1.30;;;2.00;99.90;;;2.66;100.00;95363.63;5034991;28;20981;-79
2023/01/17 04:49:06;;;;;;;1.50;1.30;;;2.00;99.90;;;2.66;100.00;95364.41;5036635;28;20462;-79
2023/01/17 04:51:37;;;;;;;4.23;1.50;;;1.90;99.90;;;2.61;100.00;95356.47;5039551;28;20952;-79
2023/01/17 04:54:07;;;;;;;1.80;1.37;;;2.00;99.90;;;2.61;100.00;95358.25;5035956;28;20495;-80
2023/01/17 04:56:37;;;;;;;3.37;1.83;;;1.90;99.90;;;2.57;100.00;95363.03;5041088;28;20487;-79
2023/01/17 04:59:07;;;;;;;2.10;1.53;;;2.00;99.90;;;2.58;100.00;95361.25;5038845;28;20486;-80
2023/01/17 05:01:37;;;;;;;3.80;1.60;;;1.90;99.90;;;2.56;100.00;95346.00;5039259;28;20465;-79
2023/01/17 05:04:09;;;;;;;1.60;1.50;;;1.80;99.90;;;2.56;100.00;95347.78;5038593;28;20877;-80
2023/01/17 05:06:39;;;;;;;2.13;1.70;;;1.80;99.90;;;2.54;100.00;95347.97;5038933;28;20453;-80
2023/01/17 05:09:09;;;;;;;2.50;1.63;;;1.80;99.90;;;2.52;100.00;95350.78;5038152;28;20479;-80
2023/01/17 05:11:40;;;;;;;3.03;1.50;;;1.80;99.90;;;2.52;100.00;95349.97;5039903;28;20468;-80
2023/01/17 05:14:10;;;;;;;2.00;1.53;;;1.80;99.90;;;2.47;100.00;95350.56;5038569;28;20488;-80
2023/01/17 05:16:40;;;;;;;1.33;1.23;;;1.80;99.90;;;2.47;100.00;95350.56;5039023;28;20968;-81
2023/01/17 05:19:12;;;;;;;6.30;1.70;;;1.70;99.90;;;2.44;100.00;95360.50;5038166;28;20459;-80
2023/01/17 05:21:42;;;;;;;14.23;7.43;;;1.70;99.90;;;2.39;100.00;95361.13;5037244;28;20469;-81
2023/01/17 05:24:12;;;;;;;3.00;2.37;;;1.60;99.90;;;2.37;100.00;95367.47;5035671;28;20468;-79
2023/01/17 05:26:42;;;;;;;4.17;1.73;;;1.60;99.90;;;2.34;100.00;95370.44;5036484;28;21010;-79
2023/01/17 05:29:12;;;;;;;1.83;1.57;;;1.60;99.90;;;2.36;100.00;95369.25;5034371;28;20489;-79
2023/01/17 05:31:41;;;;;;;2.40;1.70;;;1.60;99.90;;;2.37;100.00;95370.84;5034807;28;20551;-80
2023/01/17 05:34:14;;;;;;;3.30;1.90;;;1.60;99.90;;;2.39;100.00;95373.22;5036970;28;20535;-76
2023/01/17 05:36:42;;;;;;;2.13;1.57;;;1.70;99.90;;;2.38;100.00;95380.16;5035001;28;20613;-79
2023/01/17 05:39:13;;;;;;;1.80;1.70;;;1.70;99.90;;;2.38;100.00;95384.53;5034801;28;20561;-80
2023/01/17 05:41:43;;;;;;;2.20;2.03;;;1.60;99.90;;;2.35;100.00;95378.00;5034666;28;20473;-79
2023/01/17 05:44:15;;;;;;;2.30;2.00;;;1.60;99.90;;;2.32;100.00;95375.03;5038141;28;20495;-80
2023/01/17 05:46:44;;;;;;;3.73;1.80;;;1.50;99.90;;;2.32;100.00;95380.97;5039313;28;20497;-80
2023/01/17 05:49:15;;;;;;;2.20;2.00;;;1.60;99.90;;;2.28;100.00;95392.69;5034585;28;20952;-80
2023/01/17 05:51:45;;;;;;;1.90;1.70;;;1.60;99.90;;;2.27;100.00;95388.50;5038496;28;20597;-80
2023/01/17 05:54:15;;;;;;;2.67;2.20;;;1.50;99.90;;;2.21;100.00;95391.91;5038437;28;20554;-81
2023/01/17 05:56:44;;;;;;;2.70;2.20;;;1.40;99.90;;;2.18;100.00;95400.03;5038090;28;20468;-80
2023/01/17 05:59:16;;;;;;;6.60;2.30;;;1.40;99.90;;;2.15;100.00;95400.44;5036257;28;21173;-80
2023/01/17 06:02:01;;;;;;;4.43;2.80;;;1.40;99.90;;;2.19;100.00;95393.06;5036406;28;20462;-80
2023/01/17 06:04:32;;;;;;;7.33;2.60;;;1.50;99.90;;;2.15;100.00;95395.28;5038132;28;20561;-79
2023/01/17 06:07:01;;;;;;;4.33;2.50;;;1.40;99.90;;;2.10;100.00;95384.75;5036213;28;20460;-79
2023/01/17 06:09:30;;;;;;;2.83;2.00;;;1.30;99.90;;;2.10;100.00;95384.75;5034730;28;21037;-80
2023/01/17 06:12:00;;;;;;;3.73;2.80;;;1.30;99.90;;;2.10;100.00;95379.63;5034390;28;20468;-80
2023/01/17 06:14:29;;;;;;;2.70;2.50;;;1.30;99.90;;;2.12;100.00;95387.91;5035500;28;20497;-80
2023/01/17 06:16:58;;;;;;;3.90;2.80;;;1.30;99.90;;;2.09;100.00;95378.03;5035579;28;20903;-80
2023/01/17 06:19:29;;;;;;;2.53;2.20;;;1.30;99.90;;;2.06;100.00;95377.63;5034149;28;21067;-80
2023/01/17 06:22:00;;;;;;;3.00;2.57;;;1.20;99.90;;;1.99;100.00;95385.38;5033805;28;20477;-80
2023/01/17 06:24:30;;;;;;;5.93;3.03;;;1.10;99.90;;;1.98;100.00;95382.00;5036069;28;20473;-80
2023/01/17 06:27:00;;;;;;;3.90;2.70;;;1.10;99.90;;;1.96;100.00;95378.03;5039046;28;20473;-79
2023/01/17 06:29:29;;;;;;;3.47;3.13;;;1.10;99.90;;;1.86;100.00;95386.19;5037372;28;20497;-80
2023/01/17 06:32:00;;;;;;;3.57;2.50;;;1.00;99.90;;;1.87;100.00;95386.97;5038253;28;20644;-79
2023/01/17 06:34:29;;;;;;;5.10;2.87;;;1.00;99.90;;;1.87;100.00;95397.28;5037622;28;20546;-80
2023/01/17 06:37:01;;;;;;;4.40;3.10;;;1.00;99.90;;;1.83;100.00;95389.16;5036640;28;20463;-80
2023/01/17 06:39:31;;;;;;;5.30;3.03;;;1.00;99.90;;;1.85;100.00;95394.88;5036700;28;20468;-79
2023/01/17 06:42:01;;;;;;;3.90;2.80;;;1.00;99.90;;;1.89;100.00;95398.66;5037776;28;20498;-79
2023/01/17 06:44:31;;;;;;;4.27;2.80;;;1.00;99.90;;;1.90;100.00;95402.03;5036022;28;20571;-80
2023/01/17 06:47:01;;;;;;;8.83;3.10;;;1.00;99.90;;;1.92;100.00;95394.88;5038418;28;21508;-79
2023/01/17 06:49:30;;;;;;;7.30;3.20;;;1.00;99.90;;;1.94;100.00;95392.91;5037941;28;20496;-80
2023/01/17 06:52:02;;;;;;;4.00;3.27;;;1.10;99.90;;;1.98;100.00;95383.78;5037387;28;20467;-79
2023/01/17 06:54:33;;;;;;;4.10;2.87;;;1.10;99.90;;;1.97;100.00;95382.22;5036622;28;20480;-80
2023/01/17 06:57:03;;;;;;;4.07;2.80;;;1.10;99.90;;;1.97;100.00;95385.59;5035372;28;20460;-80
2023/01/17 06:59:33;;;;;;;3.93;3.20;;;1.10;99.90;;;1.99;100.00;95382.78;5039131;28;21000;-80
2023/01/17 07:02:03;;;;;;;6.17;4.50;;;1.20;99.90;;;1.98;100.00;95373.47;5034256;28;20468;-79
2023/01/17 07:04:34;;;;;;;15.00;3.03;;;1.30;99.90;;;1.98;100.00;95370.88;5036817;28;20549;-79
2023/01/17 07:07:06;;;;;;;4.50;3.40;;;1.20;99.90;;;1.94;100.00;95370.50;5034975;28;21179;-80
2023/01/17 07:09:36;;;;;;;4.30;3.53;;;1.20;99.90;;;1.85;100.00;95376.84;5034984;28;20496;-79
2023/01/17 07:12:07;;;;;;;5.77;3.40;;;1.00;99.90;;;1.87;100.00;95371.53;5034785;28;20462;-79
2023/01/17 07:14:36;;;;;;;5.03;3.27;;;1.00;99.90;;;1.86;100.00;95372.50;5033586;28;20576;-79
2023/01/17 07:17:05;;;;;;;7.40;3.50;;;1.00;99.90;;;1.71;100.00;95370.13;5035727;28;20500;-80
2023/01/17 07:19:35;;;;;;;7.03;3.33;;;0.90;99.90;;;1.74;100.00;95363.78;5034519;28;20468;-79
2023/01/17 07:22:06;;;;;;;7.87;2.67;;;0.90;99.90;;;1.80;100.00;95368.94;5035292;28;20508;-80
2023/01/17 07:24:37;;;;;;;3.60;2.77;;;1.00;99.90;;;1.84;100.00;95369.34;5036934;28;20481;-80
2023/01/17 07:27:07;;;;;;;6.07;3.23;;;1.00;99.90;;;1.87;100.00;95366.38;5035451;28;20494;-80
2023/01/17 07:29:36;;;;;;;9.10;3.17;;;1.10;99.90;;;1.89;100.00;95372.09;5034295;28;20530;-80
2023/01/17 07:32:07;;;;;;;4.27;3.17;;;1.20;99.90;;;1.89;100.00;95361.78;5034843;28;20465;-80
2023/01/17 07:34:37;;;;;;;6.03;3.00;;;1.10;99.90;;;1.88;100.00;95370.50;5036168;28;20572;-80
2023/01/17 07:37:08;;;;;;;5.30;3.27;;;1.10;99.90;;;1.92;100.00;95371.69;5038596;28;20465;-80
2023/01/17 07:39:39;;;;;;;9.70;3.30;;;1.10;99.90;;;1.83;100.00;95370.31;5036733;28;20472;-80
2023/01/17 07:42:10;;;;;;;5.67;3.10;;;1.00;99.90;;;1.79;100.00;95366.56;5039062;28;20456;-80
2023/01/17 07:44:42;;;;;;;6.33;2.93;;;1.10;99.90;;;1.77;100.00;95373.69;5038850;28;20557;-80
2023/01/17 07:47:12;;;;;;;5.60;3.40;;;1.00;99.90;;;1.78;100.00;95370.91;5038962;28;20463;-80
2023/01/17 07:49:42;;;;;;;5.93;3.57;;;0.90;99.90;;;1.75;100.00;95370.50;5041051;28;20468;-79
2023/01/17 07:52:12;;;;;;;3.43;2.90;;;0.90;99.90;;;1.75;100.00;95375.66;5040498;28;20507;-80
2023/01/17 07:54:45;;;;;;;7.23;3.27;;;0.90;99.90;;;1.81;100.00;95367.13;5039372;28;20475;-80
2023/01/17 07:57:14;;;;;;;4.53;3.23;;;0.90;99.90;;;1.85;100.00;95370.91;5039728;28;20491;-80
2023/01/17 07:59:44;;;;;;;7.63;3.40;;;1.00;99.90;;;1.88;100.00;95370.50;5040965;28;20514;-80
2023/01/17 08:02:17;;;;;;;9.33;3.57;;;1.00;99.90;;;1.89;100.00;95367.75;5040480;28;20519;-80
2023/01/17 08:04:47;;;;;;;4.37;3.27;;;1.10;99.90;;;1.92;100.00;95357.03;5037969;28;20464;-80
2023/01/17 08:07:18;;;;;;;5.57;3.60;;;1.10;99.90;;;1.97;100.00;95353.88;5040789;28;20475;-80
2023/01/17 08:09:49;;;;;;;6.07;3.43;;;1.20;99.90;;;1.99;100.00;95357.81;5039083;28;20556;-80
2023/01/17 08:12:18;;;;;;;3.60;3.10;;;1.20;99.90;;;2.01;100.00;95360.97;5039738;28;20470;-80
2023/01/17 08:14:49;;;;;;;7.47;3.40;;;1.20;99.90;;;2.04;100.00;95359.81;5039274;28;21052;-80
2023/01/17 08:17:20;;;;;;;5.17;4.00;;;1.20;99.90;;;2.08;100.00;95361.00;5041161;28;20508;-80
2023/01/17 08:19:51;;;;;;;7.67;3.90;;;1.30;99.90;;;2.13;100.00;95368.91;5038000;28;20559;-80
2023/01/17 08:22:23;;;;;;;14.03;4.10;;;1.40;99.90;;;2.16;100.00;95362.53;5039326;28;20488;-80
2023/01/17 08:24:53;;;;;;;10.00;4.20;;;1.40;99.90;;;2.18;100.00;95366.53;5037706;28;20475;-80
2023/01/17 08:27:22;;;;;;;4.60;3.10;;;1.40;99.90;;;2.20;100.00;95364.53;5036492;28;20474;-80
2023/01/17 08:29:51;;;;;;;10.20;4.50;;;1.50;99.90;;;2.17;100.00;95364.94;5036654;28;20462;-80
2023/01/17 08:32:22;;;;;;;4.20;3.70;;;1.40;99.90;;;2.21;100.00;95355.00;5035673;28;20479;-80
2023/01/17 08:34:52;;;;;;;7.50;5.10;;;1.60;99.90;;;2.24;100.00;95357.97;5037227;28;20492;-80
2023/01/17 08:37:21;;;;;;;8.40;5.17;;;1.60;99.90;;;2.29;100.00;95360.72;5037570;28;21034;-80
2023/01/17 08:39:51;;;;;;;7.07;4.23;;;1.60;99.90;;;2.35;100.00;95356.56;5037704;28;20458;-79
2023/01/17 08:42:21;;;;;;;13.10;5.27;;;1.70;99.90;;;2.38;100.00;95358.75;5037253;28;20503;-79
2023/01/17 08:44:50;;;;;;;9.87;4.93;;;1.80;99.90;;;2.37;100.00;95357.94;5037991;28;20905;-80
2023/01/17 08:47:20;;;;;;;7.80;4.87;;;1.70;99.90;;;2.37;100.00;95355.38;5037380;28;20472;-80
2023/01/17 08:49:51;;;;;;;7.80;4.00;;;1.90;99.90;;;2.37;100.00;95365.69;5039161;28;20466;-78
2023/01/17 08:52:22;;;;;;;7.93;4.90;;;1.80;99.90;;;2.38;100.00;95372.44;5038182;28;20462;-79
2023/01/17 08:54:53;;;;;;;9.03;4.50;;;1.70;99.90;;;2.41;100.00;95376.38;5039090;28;22429;-80
2023/01/17 08:57:22;;;;;;;6.47;4.40;;;1.70;99.90;;;2.44;100.00;95371.59;5037666;28;20837;-80
2023/01/17 08:59:52;;;;;;;5.33;4.40;;;1.80;99.90;;;2.49;100.00;95376.97;5038754;28;20524;-80
2023/01/17 09:02:23;;;;;;;9.73;4.27;;;1.80;99.90;;;2.53;100.00;95356.72;5037374;28;20462;-80
2023/01/17 09:04:53;;;;;;;11.57;4.90;;;1.90;99.90;;;2.57;100.00;95359.69;5038011;28;20453;-79
2023/01/17 09:07:25;;;;;;;6.90;4.37;;;1.90;99.90;;;2.59;100.00;95362.84;5039621;28;20469;-79
2023/01/17 09:09:55;;;;;;;8.80;4.40;;;1.90;99.90;;;2.59;100.00;95362.84;5039154;28;20462;-80
2023/01/17 09:12:25;;;;;;;6.80;4.27;;;1.90;99.90;;;2.64;100.00;95350.13;5039280;28;20539;-79
2023/01/17 09:14:55;;;;;;;7.73;4.13;;;1.90;99.90;;;2.66;100.00;95361.84;5038053;28;20528;-79
2023/01/17 09:17:25;;;;;;;12.97;4.33;;;1.90;99.90;;;2.69;100.00;95363.19;5039185;28;20499;-79
2023/01/17 09:19:54;;;;;;;6.23;3.83;;;2.00;99.90;;;2.71;100.00;95356.06;5038467;28;20497;-80
2023/01/17 09:22:26;;;;;;;6.03;3.73;;;2.00;99.90;;;2.72;100.00;95352.47;5037196;28;20453;-79
2023/01/17 09:24:56;;;;;;;10.70;3.80;;;2.10;99.90;;;2.76;100.00;95348.50;5036603;28;20511;-79
2023/01/17 09:27:25;;;;;;;8.13;3.83;;;2.10;99.90;;;2.76;100.00;95348.50;5037762;28;20458;-79
2023/01/17 09:29:56;;;;;;;6.53;3.97;;;2.10;99.90;;;2.77;100.00;95342.34;5034992;28;20457;-79
2023/01/17 09:32:25;;;;;;;17.03;6.60;;;2.10;99.90;;;2.78;100.00;95341.31;5038091;28;20486;-79
2023/01/17 09:34:56;;;;;;;7.47;4.80;;;2.10;99.90;;;2.81;100.00;95344.28;5035087;28;20492;-79
2023/01/17 09:37:27;;;;;;;8.83;4.17;;;2.20;99.90;;;2.83;100.00;95344.09;5035379;28;20976;-79
2023/01/17 09:39:58;;;;;;;4.37;3.33;;;2.20;99.90;;;2.84;100.00;95337.94;5035209;28;20458;-79
2023/01/17 09:42:37;;;;;;;5.17;3.10;;;2.20;99.90;;;2.82;100.00;95342.50;5036782;28;20472;-79
2023/01/17 09:45:17;;;;;;;6.53;2.90;;;2.20;99.90;;;2.84;100.00;95337.94;5039458;28;20538;-79
2023/01/17 09:47:51;;;;;;;5.27;3.93;;;2.30;99.90;;;2.83;100.00;95338.94;5037495;28;20491;-79
2023/01/17 09:50:31;;;;;;;4.20;3.20;;;2.30;99.90;;;2.83;100.00;95344.09;5037851;28;20874;-79
2023/01/17 09:53:06;;;;;;;5.10;2.77;;;2.20;99.90;;;2.86;100.00;95339.31;5038059;28;20493;-80
2023/01/17 09:55:53;;;;;;;3.90;2.67;;;2.30;99.90;;;2.86;100.00;95335.94;5036182;28;20489;-79
2023/01/17 09:58:34;;;;;;;7.20;3.40;;;2.20;99.90;;;2.86;100.00;95339.31;5038124;28;20489;-79
2023/01/17 10:01:16;;;;;;;6.43;2.47;;;2.20;99.90;;;2.85;100.00;95342.09;5037964;28;20488;-79
2023/01/17 10:04:11;;;;;;;10.27;2.90;;;2.20;99.90;;;2.87;100.00;95332.38;5036353;28;20548;-80
2023/01/17 10:06:57;;;;;;;6.30;2.93;;;2.20;99.90;;;2.87;100.00;95345.28;5037042;28;20459;-79
2023/01/17 10:09:51;;;;;;;5.23;3.30;;;2.10;99.90;;;2.83;100.00;95338.94;5037076;28;20560;-79
2023/01/17 10:12:36;;;;;;;7.60;3.90;;;2.10;99.90;;;2.82;100.00;95339.91;5037032;28;20961;-79
2023/01/17 10:15:35;;;;;;;6.53;4.43;;;2.10;99.90;;;2.83;100.00;95339.72;5036655;28;20546;-79
2023/01/17 10:18:33;;;;;;;6.60;3.23;;;2.20;99.90;;;2.80;100.00;95341.94;5033421;28;20507;-79
2023/01/17 10:21:12;;;;;;;3.47;3.10;;;2.20;99.90;;;2.80;100.00;95349.66;5034003;28;20453;-79
2023/01/17 10:24:15;;;;;;;4.00;3.03;;;2.20;99.90;;;2.77;100.00;95344.91;5034548;28;20457;-79
2023/01/17 10:26:50;;;;;;;4.07;3.40;;;2.20;99.90;;;2.76;100.00;95353.66;5034684;28;20457;-79
2023/01/17 10:29:20;;;;;;;6.30;3.60;;;2.20;99.90;;;2.73;100.00;95349.69;5034932;28;20458;-79
2023/01/17 10:31:56;;;;;;;3.37;2.93;;;2.10;99.90;;;2.76;100.00;95353.66;5036024;28;20989;-79
2023/01/17 10:34:35;;;;;;;5.80;3.50;;;2.20;99.90;;;2.80;100.00;95354.81;5035571;28;20471;-80
2023/01/17 10:37:17;;;;;;;8.10;4.07;;;2.20;99.90;;;2.82;100.00;95347.66;5036418;28;20532;-79
2023/01/17 10:39:52;;;;;;;5.33;3.40;;;2.20;99.90;;;2.81;100.00;95351.25;5037430;28;20551;-79
2023/01/17 10:42:32;;;;;;;5.60;3.00;;;2.20;99.90;;;2.81;100.00;95341.72;5035133;28;20465;-79
2023/01/17 10:45:15;;;;;;;9.40;3.13;;;2.20;99.90;;;2.85;100.00;95337.72;5036657;28;20847;-79
2023/01/17 10:47:58;;;;;;;4.87;3.13;;;2.20;99.90;;;2.85;100.00;95336.94;5036435;28;20465;-79
2023/01/17 10:50:32;;;;;;;5.20;3.63;;;2.20;99.90;;;2.88;100.00;95336.53;5036588;28;20905;-79
2023/01/17 10:53:16;;;;;;;6.33;2.83;;;2.20;99.90;;;2.89;100.00;95333.75;5037583;28;20461;-79
2023/01/17 10:55:53;;;;;;;6.90;3.00;;;2.30;99.90;;;2.92;100.00;95328.16;5037131;28;20457;-79
2023/01/17 10:58:26;;;;;;;4.50;3.33;;;2.30;99.90;;;2.92;100.00;95328.16;5038589;28;20492;-79
2023/01/17 11:01:01;;;;;;;8.53;3.93;;;2.30;99.90;;;2.93;100.00;95321.22;5035124;28;20462;-79
2023/01/17 11:03:32;;;;;;;7.03;3.47;;;2.20;99.90;;;2.94;100.00;95320.22;5036382;28;20457;-79
2023/01/17 11:06:20;;;;;;;6.23;3.67;;;2.20;99.90;;;2.94;100.00;95309.91;5036761;28;20468;-79
2023/01/17 11:08:55;;;;;;;6.03;3.77;;;2.20;99.90;;;2.97;100.00;95314.66;5036999;28;20953;-79
2023/01/17 11:11:30;;;;;;;2.90;2.60;;;2.30;99.90;;;2.94;100.00;95315.06;5036709;28;20465;-79
2023/01/17 11:14:06;;;;;;;5.30;3.10;;;2.20;99.90;;;2.94;100.00;95312.47;5036503;28;20463;-79
2023/01/17 11:16:38;;;;;;;3.27;2.83;;;2.20;99.90;;;2.96;100.00;95306.09;5035257;28;20584;-79
2023/01/17 11:19:21;;;;;;;3.73;2.63;;;2.30;99.90;;;2.93;100.00;95303.94;5034236;28;20465;-80
2023/01/17 11:21:56;;;;;;;3.13;2.60;;;2.30;99.90;;;2.93;100.00;95292.81;5033577;28;20454;-80
2023/01/17 11:24:34;;;;;;;6.00;2.50;;;2.20;99.90;;;2.91;100.00;95294.84;5035183;28;20457;-79
2023/01/17 11:27:07;;;;;;;4.20;2.20;;;2.20;99.90;;;2.93;100.00;95298.00;5035530;28;20476;-79
2023/01/17 11:29:40;;;;;;;4.50;2.50;;;2.30;99.90;;;2.91;100.00;95294.84;5032276;28;20469;-79
2023/01/17 11:32:31;;;;;;;4.77;2.50;;;2.30;99.90;;;2.94;100.00;95299.59;5033320;28;20479;-79
2023/01/17 11:35:19;;;;;;;2.50;2.13;;;2.30;99.90;;;2.97;100.00;95304.31;5035326;28;20457;-79
2023/01/17 11:38:06;;;;;;;2.53;2.00;;;2.40;99.90;;;3.00;100.00;95293.59;5034493;28;20575;-79
2023/01/17 11:40:40;;;;;;;4.57;2.90;;;2.40;99.90;;;3.04;100.00;95290.38;5036653;28;20466;-79
2023/01/17 11:43:24;;;;;;;3.80;2.60;;;2.40;99.90;;;3.07;100.00;95288.38;5037305;28;20497;-79
2023/01/17 11:46:19;;;;;;;3.37;2.57;;;2.50;99.90;;;3.09;100.00;95276.84;5038440;28;20558;-79
2023/01/17 11:48:51;;;;;;;5.37;2.10;;;2.50;99.90;;;3.11;100.00;95274.84;5035460;28;20465;-80
2023/01/17 11:51:30;;;;;;;5.73;2.60;;;2.50;99.90;;;3.15;100.00;95276.03;5036363;28;20467;-79
2023/01/17 11:54:18;;;;;;;2.50;1.93;;;2.60;99.90;;;3.17;100.00;95263.69;5035384;28;20458;-79
2023/01/17 11:56:50;;;;;;;7.63;2.23;;;2.70;99.90;;;3.20;100.00;95263.25;5037200;28;20520;-79
2023/01/17 11:59:33;;;;;;;2.33;2.10;;;2.60;99.90;;;3.19;100.00;95259.13;5034961;28;20581;-80
2023/01/17 12:02:45;;;;;;;2.33;2.13;;;2.70;99.90;;;3.20;100.00;95252.94;5037747;28;20475;-79
2023/01/17 12:05:40;;;;;;;4.63;1.93;;;2.60;99.90;;;3.24;100.00;95243.78;5036469;28;20464;-80
2023/01/17 12:08:29;;;;;;;3.17;1.83;;;2.70;99.90;;;3.27;100.00;95243.34;5033453;28;20501;-79
2023/01/17 12:11:11;;;;;;;2.70;2.27;;;2.70;99.90;;;3.29;100.00;95236.19;5033275;28;20474;-79
2023/01/17 12:17:10;;;;;;;4.10;2.10;;;2.90;99.90;;;3.32;100.00;95232.41;5019919;28;20564;-79